createdAt,value
2023-04-30T00:01:42.953Z,8.20
2023-04-30T00:04:09.675Z,8.20
2023-04-30T00:06:36.417Z,8.20
2023-04-30T00:09:03.383Z,8.10
2023-04-30T00:11:30.075Z,8.10
2023-04-30T00:13:57.190Z,8.00
2023-04-30T00:16:24.017Z,8.00
2023-04-30T00:18:50.822Z,7.90
2023-04-30T00:21:17.518Z,7.90
2023-04-30T00:23:44.290Z,7.90
2023-04-30T00:26:11.034Z,7.90
2023-04-30T00:28:37.855Z,7.80
2023-04-30T00:31:06.907Z,7.80
2023-04-30T00:33:33.557Z,7.80
2023-04-30T00:36:00.349Z,7.70
2023-04-30T00:38:27.162Z,7.80
2023-04-30T00:40:53.945Z,7.80
2023-04-30T00:43:20.729Z,7.70
2023-04-30T00:45:53.452Z,7.70
2023-04-30T00:48:20.495Z,7.70
2023-04-30T00:50:47.256Z,7.60
2023-04-30T00:53:14.145Z,7.60
2023-04-30T00:55:41.766Z,7.60
2023-04-30T00:58:08.625Z,7.60
2023-04-30T01:00:36.554Z,7.50
2023-04-30T01:03:04.258Z,7.50
2023-04-30T01:05:31.081Z,7.50
2023-04-30T01:07:57.856Z,7.50
2023-04-30T01:10:32.280Z,7.40
2023-04-30T01:13:04.203Z,7.40
2023-04-30T01:15:43.138Z,7.30
2023-04-30T01:18:17.555Z,7.30
2023-04-30T01:20:50.574Z,7.30
2023-04-30T01:23:36.014Z,7.20
2023-04-30T01:26:12.903Z,7.20
2023-04-30T01:28:44.632Z,7.20
2023-04-30T01:31:19.871Z,7.10
2023-04-30T01:33:46.956Z,7.10
2023-04-30T01:36:24.549Z,7.00
2023-04-30T01:39:09.717Z,7.00
2023-04-30T01:42:07.801Z,7.00
2023-04-30T01:45:19.483Z,6.90
2023-04-30T01:47:59.339Z,6.90
2023-04-30T01:50:42.693Z,6.80
2023-04-30T01:53:21.983Z,6.80
2023-04-30T01:56:02.572Z,6.80
2023-04-30T01:58:30.846Z,6.90
2023-04-30T02:01:04.733Z,6.70
2023-04-30T02:03:34.263Z,6.70
2023-04-30T02:06:07.890Z,6.70
2023-04-30T02:08:50.492Z,6.60
2023-04-30T02:11:27.205Z,6.70
2023-04-30T02:14:03.163Z,6.60
2023-04-30T02:16:29.878Z,6.50
2023-04-30T02:18:56.570Z,6.50
2023-04-30T02:21:23.419Z,6.50
2023-04-30T02:23:50.283Z,6.40
2023-04-30T02:26:17.104Z,6.40
2023-04-30T02:28:43.835Z,6.40
2023-04-30T02:31:10.625Z,6.40
2023-04-30T02:33:37.363Z,6.40
2023-04-30T02:36:04.689Z,6.40
2023-04-30T02:38:31.380Z,6.30
2023-04-30T02:40:58.017Z,6.30
2023-04-30T02:43:44.240Z,6.30
2023-04-30T02:46:11.436Z,6.30
2023-04-30T02:48:38.430Z,6.30
2023-04-30T02:51:16.974Z,6.30
2023-04-30T02:53:47.597Z,6.20
2023-04-30T02:56:14.868Z,6.20
2023-04-30T02:58:44.196Z,6.30
2023-04-30T03:01:16.384Z,6.20
2023-04-30T03:03:46.416Z,6.20
2023-04-30T03:06:13.181Z,6.20
2023-04-30T03:08:39.951Z,6.20
2023-04-30T03:11:06.625Z,6.10
2023-04-30T03:13:33.486Z,6.10
2023-04-30T03:16:04.554Z,6.10
2023-04-30T03:18:31.390Z,6.00
2023-04-30T03:20:58.519Z,6.00
2023-04-30T03:23:28.144Z,6.00
2023-04-30T03:25:54.860Z,6.00
2023-04-30T03:28:22.123Z,5.90
2023-04-30T03:30:48.863Z,5.90
2023-04-30T03:33:16.682Z,5.90
2023-04-30T03:35:43.536Z,5.90
2023-04-30T03:38:10.523Z,5.90
2023-04-30T03:40:37.289Z,5.80
2023-04-30T03:43:04.215Z,5.80
2023-04-30T03:45:31.352Z,5.70
2023-04-30T03:47:59.112Z,5.70
2023-04-30T03:50:26.091Z,5.70
2023-04-30T03:52:52.785Z,5.70
2023-04-30T03:55:19.568Z,5.70
2023-04-30T03:57:46.495Z,5.70
2023-04-30T04:00:13.660Z,5.60
2023-04-30T04:02:41.268Z,5.60
2023-04-30T04:05:08.491Z,5.50
2023-04-30T04:07:35.129Z,5.50
2023-04-30T04:10:02.847Z,5.50
2023-04-30T04:12:30.418Z,5.50
2023-04-30T04:14:57.160Z,5.50
2023-04-30T04:17:24.082Z,5.50
2023-04-30T04:19:52.197Z,5.50
2023-04-30T04:22:19.147Z,5.40
2023-04-30T04:24:46.190Z,5.40
2023-04-30T04:27:12.915Z,5.40
2023-04-30T04:29:39.673Z,5.40
2023-04-30T04:32:06.452Z,5.40
2023-04-30T04:34:33.554Z,5.50
2023-04-30T04:37:01.571Z,5.50
2023-04-30T04:39:28.311Z,5.50
2023-04-30T04:41:55.768Z,5.50
2023-04-30T04:44:22.942Z,5.60
2023-04-30T04:46:53.842Z,5.60
2023-04-30T04:49:21.016Z,5.60
2023-04-30T04:51:47.714Z,5.60
2023-04-30T04:54:14.425Z,5.60
2023-04-30T04:56:41.325Z,5.70
2023-04-30T04:59:08.190Z,5.70
2023-04-30T05:01:34.896Z,5.70
2023-04-30T05:04:01.730Z,5.80
2023-04-30T05:06:28.698Z,5.80
2023-04-30T05:08:55.507Z,5.90
2023-04-30T05:11:23.021Z,5.90
2023-04-30T05:13:49.697Z,5.90
2023-04-30T05:16:16.773Z,6.00
2023-04-30T05:18:43.498Z,6.00
2023-04-30T05:21:10.600Z,6.10
2023-04-30T05:23:37.494Z,6.10
2023-04-30T05:26:04.810Z,6.20
2023-04-30T05:28:31.547Z,6.20
2023-04-30T05:30:58.281Z,6.30
2023-04-30T05:33:24.985Z,6.30
2023-04-30T05:35:53.626Z,6.40
2023-04-30T05:38:20.493Z,6.40
2023-04-30T05:40:47.656Z,6.50
2023-04-30T05:43:14.587Z,6.50
2023-04-30T05:45:41.254Z,6.60
2023-04-30T05:48:08.019Z,6.70
2023-04-30T05:50:34.723Z,6.70
2023-04-30T05:53:01.438Z,6.70
2023-04-30T05:55:28.250Z,6.80
2023-04-30T05:57:54.938Z,6.90
2023-04-30T06:00:21.690Z,7.00
2023-04-30T06:02:48.456Z,7.40
2023-04-30T06:05:16.232Z,8.50
2023-04-30T06:07:43.139Z,9.80
2023-04-30T06:10:10.369Z,11.20
2023-04-30T06:12:37.494Z,12.40
2023-04-30T06:15:04.528Z,13.50
2023-04-30T06:17:31.296Z,14.40
2023-04-30T06:20:00.796Z,15.40
2023-04-30T06:22:27.690Z,16.30
2023-04-30T06:24:54.419Z,16.90
2023-04-30T06:27:21.191Z,17.40
2023-04-30T06:29:47.878Z,17.90
2023-04-30T06:32:14.626Z,18.30
2023-04-30T06:34:41.295Z,18.80
2023-04-30T06:37:08.022Z,19.20
2023-04-30T06:39:34.902Z,19.50
2023-04-30T06:42:01.610Z,19.80
2023-04-30T06:44:28.267Z,20.10
2023-04-30T06:46:55.983Z,20.60
2023-04-30T06:49:22.636Z,20.70
2023-04-30T06:51:49.303Z,20.80
2023-04-30T06:54:16.342Z,20.70
2023-04-30T06:56:43.915Z,20.50
2023-04-30T06:59:10.650Z,20.20
2023-04-30T07:01:37.408Z,19.90
2023-04-30T07:04:04.159Z,19.70
2023-04-30T07:06:30.931Z,19.40
2023-04-30T07:08:57.690Z,18.90
2023-04-30T07:11:24.365Z,19.10
2023-04-30T07:13:51.433Z,19.10
2023-04-30T07:16:18.262Z,19.30
2023-04-30T07:18:45.007Z,19.60
2023-04-30T07:21:11.715Z,19.90
2023-04-30T07:23:38.365Z,20.20
2023-04-30T07:26:05.146Z,20.30
2023-04-30T07:28:31.847Z,20.50
2023-04-30T07:30:58.518Z,20.40
2023-04-30T07:33:25.189Z,19.90
2023-04-30T07:35:52.338Z,19.90
2023-04-30T07:38:19.192Z,19.70
2023-04-30T07:40:46.227Z,19.50
2023-04-30T07:43:12.905Z,19.60
2023-04-30T07:45:40.527Z,19.70
2023-04-30T07:48:07.416Z,19.70
2023-04-30T07:50:34.493Z,19.30
2023-04-30T07:53:02.388Z,19.50
2023-04-30T07:55:29.200Z,19.70
2023-04-30T07:57:56.015Z,19.70
2023-04-30T08:00:22.982Z,19.80
2023-04-30T08:02:50.711Z,20.10
2023-04-30T08:05:17.825Z,20.30
2023-04-30T08:07:44.880Z,20.40
2023-04-30T08:10:12.045Z,20.30
2023-04-30T08:12:39.329Z,20.30
2023-04-30T08:15:07.617Z,19.90
2023-04-30T08:17:34.759Z,20.10
2023-04-30T08:20:03.006Z,20.10
2023-04-30T08:22:29.811Z,20.00
2023-04-30T08:24:56.491Z,20.10
2023-04-30T08:27:23.531Z,20.10
2023-04-30T08:29:50.272Z,20.30
2023-04-30T08:32:19.527Z,20.40
2023-04-30T08:34:46.499Z,20.60
2023-04-30T08:37:13.468Z,20.50
2023-04-30T08:39:40.438Z,20.50
2023-04-30T08:42:09.328Z,20.70
2023-04-30T08:44:39.957Z,20.80
2023-04-30T08:47:08.853Z,20.80
2023-04-30T08:49:37.057Z,20.80
2023-04-30T08:52:03.834Z,20.40
2023-04-30T08:54:35.273Z,20.30
2023-04-30T08:57:02.648Z,19.80
2023-04-30T08:59:29.432Z,19.50
2023-04-30T09:01:56.433Z,19.20
2023-04-30T09:04:23.343Z,19.30
2023-04-30T09:06:53.494Z,19.60
2023-04-30T09:09:20.265Z,19.80
2023-04-30T09:11:46.914Z,19.90
2023-04-30T09:14:13.850Z,19.80
2023-04-30T09:16:49.071Z,19.70
2023-04-30T09:19:27.238Z,19.60
2023-04-30T09:21:56.360Z,19.50
2023-04-30T09:24:23.925Z,19.20
2023-04-30T09:26:51.876Z,19.20
2023-04-30T09:29:18.534Z,19.30
2023-04-30T09:31:47.222Z,19.20
2023-04-30T09:34:15.195Z,19.00
2023-04-30T09:36:55.532Z,18.90
2023-04-30T09:39:22.695Z,18.80
2023-04-30T09:41:52.014Z,18.90
2023-04-30T09:44:32.193Z,19.00
2023-04-30T09:47:00.016Z,19.00
2023-04-30T09:49:27.514Z,19.00
2023-04-30T09:51:59.933Z,19.00
2023-04-30T09:54:31.469Z,19.20
2023-04-30T09:57:02.645Z,19.20
2023-04-30T09:59:35.449Z,19.10
2023-04-30T10:02:04.815Z,19.20
2023-04-30T10:04:41.859Z,19.20
2023-04-30T10:07:21.561Z,19.30
2023-04-30T10:10:05.259Z,19.30
2023-04-30T10:12:51.128Z,19.30
2023-04-30T10:15:28.398Z,19.10
2023-04-30T10:18:01.478Z,19.10
2023-04-30T10:20:28.784Z,19.00
2023-04-30T10:22:56.299Z,19.10
2023-04-30T10:25:23.752Z,19.10
2023-04-30T10:27:51.843Z,19.20
2023-04-30T10:30:18.902Z,19.30
2023-04-30T10:33:05.919Z,19.30
2023-04-30T10:35:41.823Z,19.40
2023-04-30T10:38:16.793Z,19.40
2023-04-30T10:40:47.294Z,19.30
2023-04-30T10:43:14.196Z,19.40
2023-04-30T10:45:44.155Z,19.30
2023-04-30T10:49:07.396Z,19.40
2023-04-30T10:55:10.192Z,19.00
2023-04-30T11:08:33.108Z,19.00
2023-04-30T11:11:01.774Z,19.00
2023-04-30T11:14:01.859Z,19.00
2023-04-30T11:16:34.558Z,19.30
2023-04-30T11:19:14.716Z,19.30
2023-04-30T11:22:03.379Z,19.40
2023-04-30T11:25:01.251Z,19.50
2023-04-30T11:28:19.936Z,19.70
2023-04-30T11:40:58.493Z,19.70
2023-04-30T11:43:29.420Z,19.70
2023-04-30T11:46:17.668Z,19.70
2023-04-30T11:48:46.128Z,19.80
2023-04-30T11:51:15.956Z,19.80
2023-04-30T11:53:43.053Z,20.00
2023-04-30T11:56:09.878Z,20.20
2023-04-30T11:58:40.485Z,20.40
2023-04-30T12:01:09.710Z,20.50
2023-04-30T12:03:55.944Z,20.60
2023-04-30T12:06:28.108Z,20.60
2023-04-30T12:09:00.167Z,20.60
2023-04-30T12:11:29.195Z,20.60
2023-04-30T12:14:04.493Z,20.40
2023-04-30T12:16:46.047Z,20.30
2023-04-30T12:19:13.269Z,20.40
2023-04-30T12:21:42.285Z,20.30
2023-04-30T12:24:11.001Z,20.40
2023-04-30T12:26:39.986Z,20.50
2023-04-30T12:29:15.003Z,20.50
2023-04-30T12:31:43.205Z,20.60
2023-04-30T12:34:13.925Z,20.70
2023-04-30T12:36:44.522Z,20.80
2023-04-30T12:39:16.183Z,20.80
2023-04-30T12:41:45.832Z,20.70
2023-04-30T12:44:23.340Z,20.80
2023-04-30T12:46:52.589Z,20.70
2023-04-30T12:49:24.882Z,20.80
2023-04-30T12:51:51.905Z,20.90
2023-04-30T12:54:36.112Z,20.90
2023-04-30T12:57:05.463Z,20.90
2023-04-30T12:59:38.003Z,21.00
2023-04-30T13:02:13.230Z,20.90
2023-04-30T13:04:42.002Z,20.80
2023-04-30T13:07:08.970Z,20.80
2023-04-30T13:09:37.158Z,20.80
2023-04-30T13:12:04.426Z,21.00
2023-04-30T13:14:32.253Z,21.00
2023-04-30T13:16:59.521Z,21.50
2023-04-30T13:19:26.989Z,21.50
2023-04-30T13:21:53.664Z,21.50
2023-04-30T13:24:20.470Z,21.30
2023-04-30T13:26:48.140Z,21.50
2023-04-30T13:29:15.051Z,21.50
2023-04-30T13:31:42.507Z,21.50
2023-04-30T13:34:10.138Z,21.60
2023-04-30T13:36:37.751Z,21.60
2023-04-30T13:39:04.933Z,21.70
2023-04-30T13:41:32.087Z,21.80
2023-04-30T13:44:00.199Z,21.80
2023-04-30T13:46:27.144Z,21.80
2023-04-30T13:48:54.003Z,21.90
2023-04-30T13:51:20.970Z,21.90
2023-04-30T13:53:48.117Z,21.90
2023-04-30T13:56:15.551Z,21.90
2023-04-30T13:58:42.273Z,21.90
2023-04-30T14:01:10.398Z,21.90
2023-04-30T14:03:37.687Z,22.00
2023-04-30T14:06:05.966Z,22.00
2023-04-30T14:08:33.762Z,22.10
2023-04-30T14:11:00.884Z,22.10
2023-04-30T14:13:27.550Z,22.10
2023-04-30T14:15:55.998Z,22.00
2023-04-30T14:18:22.956Z,22.00
2023-04-30T14:20:49.965Z,21.90
2023-04-30T14:23:16.743Z,21.80
2023-04-30T14:25:44.629Z,21.60
2023-04-30T14:28:11.932Z,21.70
2023-04-30T14:30:38.881Z,21.70
2023-04-30T14:33:05.648Z,21.70
2023-04-30T14:35:33.648Z,21.70
2023-04-30T14:38:00.422Z,21.70
2023-04-30T14:40:27.255Z,21.60
2023-04-30T14:42:53.977Z,21.30
2023-04-30T14:45:20.891Z,21.00
2023-04-30T14:47:47.627Z,20.60
2023-04-30T14:50:14.352Z,20.30
2023-04-30T14:52:42.157Z,20.10
2023-04-30T14:55:09.298Z,20.00
2023-04-30T14:57:36.479Z,20.00
2023-04-30T15:00:07.027Z,20.10
2023-04-30T15:02:33.992Z,20.40
2023-04-30T15:05:00.914Z,20.70
2023-04-30T15:07:27.919Z,21.00
2023-04-30T15:09:54.813Z,20.90
2023-04-30T15:12:22.572Z,20.60
2023-04-30T15:14:49.314Z,20.50
2023-04-30T15:17:16.215Z,20.20
2023-04-30T15:19:43.662Z,19.90
2023-04-30T15:22:10.445Z,19.70
2023-04-30T15:24:37.282Z,19.60
2023-04-30T15:27:04.427Z,19.60
2023-04-30T15:29:31.566Z,19.60
2023-04-30T15:31:59.600Z,19.70
2023-04-30T15:34:26.570Z,19.80
2023-04-30T15:36:54.437Z,19.80
2023-04-30T15:39:22.105Z,19.80
2023-04-30T15:41:48.857Z,19.90
2023-04-30T15:44:15.639Z,19.90
2023-04-30T15:46:42.655Z,19.80
2023-04-30T15:49:09.452Z,19.90
2023-04-30T15:51:36.930Z,20.10
2023-04-30T15:54:04.060Z,20.30
2023-04-30T15:56:31.709Z,20.50
2023-04-30T15:58:58.423Z,20.60
2023-04-30T16:01:25.412Z,20.50
2023-04-30T16:03:52.203Z,20.50
2023-04-30T16:06:19.452Z,20.30
2023-04-30T16:08:47.184Z,20.30
2023-04-30T16:11:13.959Z,20.20
2023-04-30T16:13:40.707Z,20.20
2023-04-30T16:16:08.884Z,20.20
2023-04-30T16:18:35.615Z,20.20
2023-04-30T16:21:02.609Z,20.10
2023-04-30T16:23:29.374Z,20.10
2023-04-30T16:25:56.506Z,20.10
2023-04-30T16:28:23.631Z,20.10
2023-04-30T16:30:50.814Z,20.20
2023-04-30T16:33:17.849Z,20.20
2023-04-30T16:35:44.842Z,20.20
2023-04-30T16:38:11.706Z,20.20
2023-04-30T16:40:38.526Z,20.10
2023-04-30T16:43:08.172Z,20.00
2023-04-30T16:45:35.647Z,19.90
2023-04-30T16:48:02.417Z,19.80
2023-04-30T16:50:29.268Z,19.90
2023-04-30T16:52:56.110Z,19.70
2023-04-30T16:55:30.446Z,19.50
2023-04-30T16:57:57.559Z,19.30
2023-04-30T17:00:27.076Z,19.10
2023-04-30T17:02:59.545Z,19.10
2023-04-30T17:05:30.113Z,19.10
2023-04-30T17:07:59.487Z,19.00
2023-04-30T17:10:27.509Z,19.00
2023-04-30T17:12:56.686Z,19.10
2023-04-30T17:15:25.023Z,19.20
2023-04-30T17:17:51.858Z,19.30
2023-04-30T17:20:18.799Z,19.30
2023-04-30T17:22:46.016Z,19.50
2023-04-30T17:25:12.926Z,19.30
2023-04-30T17:27:39.686Z,19.20
2023-04-30T17:30:08.627Z,19.10
2023-04-30T17:32:35.438Z,19.10
2023-04-30T17:35:02.913Z,19.00
2023-04-30T17:37:30.124Z,19.10
2023-04-30T17:39:57.184Z,18.80
2023-04-30T17:42:24.320Z,18.80
2023-04-30T17:44:50.970Z,18.70
2023-04-30T17:47:19.117Z,18.50
2023-04-30T17:49:46.256Z,18.50
2023-04-30T17:52:13.415Z,18.40
2023-04-30T17:54:40.293Z,18.30
2023-04-30T17:57:07.315Z,18.20
2023-04-30T17:59:34.829Z,18.20
2023-04-30T18:02:02.690Z,18.10
2023-04-30T18:04:29.499Z,18.00
2023-04-30T18:06:56.262Z,17.90
2023-04-30T18:09:23.654Z,17.90
2023-04-30T18:11:50.588Z,17.90
2023-04-30T18:14:18.446Z,17.80
2023-04-30T18:16:45.286Z,17.80
2023-04-30T18:19:12.113Z,17.70
2023-04-30T18:21:38.915Z,17.60
2023-04-30T18:24:05.866Z,17.60
2023-04-30T18:26:32.576Z,17.50
2023-04-30T18:29:01.340Z,17.40
2023-04-30T18:31:28.655Z,17.30
2023-04-30T18:33:55.386Z,17.30
2023-04-30T18:36:23.555Z,17.10
2023-04-30T18:38:51.237Z,17.10
2023-04-30T18:41:18.297Z,17.00
2023-04-30T18:43:45.115Z,16.90
2023-04-30T18:46:12.052Z,16.80
2023-04-30T18:48:38.815Z,16.70
2023-04-30T18:51:05.545Z,16.60
2023-04-30T18:53:32.263Z,16.50
2023-04-30T18:55:58.999Z,16.40
2023-04-30T18:58:25.992Z,16.30
2023-04-30T19:00:56.814Z,16.20
2023-04-30T19:03:24.837Z,16.10
2023-04-30T19:05:58.686Z,16.00
2023-04-30T19:08:25.622Z,15.90
2023-04-30T19:10:53.257Z,15.70
2023-04-30T19:13:20.001Z,15.60
2023-04-30T19:15:48.696Z,15.50
2023-04-30T19:18:16.444Z,15.40
2023-04-30T19:20:43.364Z,15.30
2023-04-30T19:23:10.382Z,15.20
2023-04-30T19:25:39.017Z,15.10
2023-04-30T19:28:05.751Z,15.00
2023-04-30T19:30:32.438Z,14.90
2023-04-30T19:32:59.111Z,14.80
2023-04-30T19:35:25.850Z,14.80
2023-04-30T19:37:52.598Z,14.70
2023-04-30T19:40:19.434Z,14.70
2023-04-30T19:42:47.599Z,14.60
2023-04-30T19:45:14.327Z,14.60
2023-04-30T19:47:41.096Z,14.50
2023-04-30T19:50:08.518Z,14.40
2023-04-30T19:52:35.195Z,14.40
2023-04-30T19:55:02.289Z,14.30
2023-04-30T19:57:33.052Z,14.20
2023-04-30T19:59:59.976Z,14.10
2023-04-30T20:02:26.626Z,14.10
2023-04-30T20:04:53.371Z,14.00
2023-04-30T20:07:20.501Z,14.00
2023-04-30T20:09:47.217Z,13.90
2023-04-30T20:12:13.914Z,13.90
2023-04-30T20:14:40.993Z,13.90
2023-04-30T20:17:08.060Z,13.90
2023-04-30T20:19:34.734Z,13.80
2023-04-30T20:22:03.111Z,13.70
2023-04-30T20:24:29.805Z,13.60
2023-04-30T20:26:56.859Z,13.50
2023-04-30T20:29:23.686Z,13.40
2023-04-30T20:31:50.477Z,13.40
2023-04-30T20:34:17.636Z,13.40
2023-04-30T20:36:44.821Z,13.40
2023-04-30T20:39:11.485Z,13.40
2023-04-30T20:41:38.224Z,13.40
2023-04-30T20:44:05.285Z,13.30
2023-04-30T20:46:32.602Z,13.30
2023-04-30T20:49:04.392Z,13.30
2023-04-30T20:51:31.400Z,13.30
2023-04-30T20:53:58.126Z,13.30
2023-04-30T20:56:24.913Z,13.20
2023-04-30T20:58:51.833Z,13.20
2023-04-30T21:01:18.576Z,13.20
2023-04-30T21:03:45.505Z,13.10
2023-04-30T21:06:12.368Z,13.10
2023-04-30T21:08:39.064Z,13.10
2023-04-30T21:11:05.785Z,13.00
2023-04-30T21:13:32.787Z,13.00
2023-04-30T21:15:59.499Z,13.00
2023-04-30T21:18:28.902Z,12.90
2023-04-30T21:21:02.613Z,12.90
2023-04-30T21:23:29.975Z,12.90
2023-04-30T21:25:56.888Z,12.90
2023-04-30T21:28:23.648Z,12.90
2023-04-30T21:30:50.715Z,12.90
2023-04-30T21:33:17.522Z,12.80
2023-04-30T21:35:45.096Z,12.80
2023-04-30T21:38:12.430Z,12.90
2023-04-30T21:40:39.304Z,12.80
2023-04-30T21:43:06.033Z,12.70
2023-04-30T21:45:33.074Z,12.70
2023-04-30T21:48:00.020Z,12.70
2023-04-30T21:50:28.127Z,12.60
2023-04-30T21:52:54.841Z,12.60
2023-04-30T21:55:21.540Z,12.60
2023-04-30T21:57:50.867Z,12.60
2023-04-30T22:00:18.282Z,12.60
2023-04-30T22:02:45.119Z,12.50
2023-04-30T22:05:13.006Z,12.50
2023-04-30T22:07:40.716Z,12.40
2023-04-30T22:10:07.945Z,12.50
2023-04-30T22:12:35.514Z,12.50
2023-04-30T22:15:03.678Z,12.40
2023-04-30T22:17:30.567Z,12.40
2023-04-30T22:19:57.757Z,12.30
2023-04-30T22:22:25.063Z,12.30
2023-04-30T22:24:52.344Z,12.30
2023-04-30T22:27:19.035Z,12.30
2023-04-30T22:29:49.355Z,12.20
2023-04-30T22:32:19.478Z,12.20
2023-04-30T22:34:46.253Z,12.20
2023-04-30T22:37:13.004Z,12.20
2023-04-30T22:39:39.787Z,12.10
2023-04-30T22:42:08.413Z,12.10
2023-04-30T22:44:35.628Z,12.10
2023-04-30T22:47:03.325Z,12.00
2023-04-30T22:49:32.068Z,12.00
2023-04-30T22:51:59.754Z,12.00
2023-04-30T22:54:26.628Z,12.00
2023-04-30T22:56:53.362Z,11.90
2023-04-30T22:59:20.021Z,11.90
2023-04-30T23:01:46.843Z,11.90
2023-04-30T23:04:13.766Z,11.80
2023-04-30T23:06:41.481Z,11.70
2023-04-30T23:09:08.807Z,11.70
2023-04-30T23:11:35.624Z,11.70
2023-04-30T23:14:02.507Z,11.70
2023-04-30T23:16:29.284Z,11.60
2023-04-30T23:18:56.637Z,11.60
2023-04-30T23:21:23.388Z,11.50
2023-04-30T23:23:50.397Z,11.50
2023-04-30T23:26:17.180Z,11.40
2023-04-30T23:28:43.838Z,11.50
2023-04-30T23:31:10.500Z,11.40
2023-04-30T23:33:37.184Z,11.30
2023-04-30T23:36:04.060Z,11.20
2023-04-30T23:38:30.817Z,11.10
2023-04-30T23:40:57.575Z,11.00
2023-04-30T23:43:25.243Z,11.00
2023-04-30T23:45:52.417Z,10.90
2023-04-30T23:48:19.291Z,10.80
2023-04-30T23:50:47.201Z,10.70
2023-04-30T23:53:17.098Z,10.70
2023-04-30T23:55:44.027Z,10.60
2023-04-30T23:58:10.838Z,10.50
